• Join FlightAware (Why Join?)
  • Login
  • US Flag 
12:28PM EDT


 

Airport Tracker/Info


-or-


 

Live Flight TrackerFlight Track Log ✈ PVL5700 ✈ 01-Jun-2013 ✈ CYQX - CYYT

Flight Track Log - Related Links

Times and Time Zones

All times are in EDT time to prevent confusion due to time zone crossing. See the PVL5700 flight status page for this flight to view local times or setup timezone preferences in your user account.

Time Position Orientation Groundspeed Altitude Reporting Facility
EDT Latitude Longitude Course Direction KTS MPH feet Rate Location/Type
03:35PM 48.9000 -54.3833 137° Southeast 190 219 4,500  Level Gander Center
03:36PM 48.8833 -54.2833 104° East 200 230 6,700 1,980 Climbing Gander Center
03:37PM 48.8500 -54.2167 127° Southeast 210 242 8,500 1,140 Climbing Gander Center
03:38PM 48.7833 -54.1500 147° Southeast 250 288 9,000 240 Climbing Gander Center
03:39PM 48.7333 -54.0833 139° Southeast 300 345 9,000  Level Gander Center
03:40PM 48.6436 -54.1523 137° Southeast  Level Estimated
03:40PM 48.6667 -53.9833 135° Southeast 320 368 9,000  Level Gander Center
03:41PM 48.5833 -53.9000 147° Southeast 320 368 9,000  Level Gander Center
03:42PM 48.5333 -53.8000 127° Southeast 320 368 9,000  Level Gander Center
03:43PM 48.4667 -53.7167 140° Southeast 320 368 9,000  Level Gander Center
03:44PM 48.4000 -53.6167 135° Southeast 320 368 9,000  Level Gander Center
03:45PM 48.3333 -53.5333 140° Southeast 320 368 9,000  Level Gander Center
03:46PM 48.2667 -53.4500 140° Southeast 320 368 9,000  Level Gander Center
03:47PM 48.2000 -53.3500 135° Southeast 310 357 9,000  Level Gander Center
03:48PM 48.1333 -53.2833 146° Southeast 320 368 9,000  Level Gander Center
03:49PM 48.0667 -53.2000 140° Southeast 320 368 9,000  Level Gander Center
03:50PM 48.0000 -53.1000 135° Southeast 320 368 9,000  Level Gander Center
03:51PM 47.9333 -53.0167 140° Southeast 320 368 9,000 -360 Level Gander Center
03:52PM 47.8667 -52.9333 140° Southeast 310 357 8,300 -1,080 Descending Gander Center
03:53PM 47.8000 -52.8667 146° Southeast 290 334 6,900 -1,680 Descending Gander Center
03:54PM 47.7333 -52.7833 140° Southeast 290 334 5,000 -2,100 Descending Gander Center
03:55PM 47.6833 -52.7167 138° Southeast 280 322 2,800 -1,800 Descending Gander Center
03:56PM 47.6500 -52.6500 127° Southeast 230 265 1,500 -960 Descending Gander Center
03:57PM 47.6167 -52.6667 199° South 140 161 900 -600 Descending Gander Center